createdAt,value
2019-03-22T00:02:18.306Z,83.83
2019-03-22T00:04:49.140Z,83.77
2019-03-22T00:07:19.838Z,83.78
2019-03-22T00:09:50.583Z,83.67
2019-03-22T00:12:21.290Z,83.76
2019-03-22T00:14:52.051Z,83.88
2019-03-22T00:17:22.901Z,83.72
2019-03-22T00:19:53.731Z,83.75
2019-03-22T00:22:24.604Z,83.66
2019-03-22T00:24:55.303Z,83.38
2019-03-22T00:27:26.010Z,84.53
2019-03-22T00:29:56.747Z,84.58
2019-03-22T00:32:27.618Z,84.56
2019-03-22T00:34:58.561Z,84.19
2019-03-22T00:37:29.387Z,84.24
2019-03-22T00:40:00.406Z,83.86
2019-03-22T00:42:31.263Z,84.38
2019-03-22T00:45:02.315Z,83.36
2019-03-22T00:47:33.165Z,83.64
2019-03-22T00:50:06.333Z,84.62
2019-03-22T00:52:37.096Z,84.63
2019-03-22T00:55:07.952Z,84.72
2019-03-22T00:57:38.741Z,85.20
2019-03-22T01:00:12.426Z,84.70
2019-03-22T01:02:43.027Z,84.99
2019-03-22T01:05:14.118Z,85.36
2019-03-22T01:07:44.958Z,84.99
2019-03-22T01:10:15.797Z,84.98
2019-03-22T01:12:46.735Z,84.95
2019-03-22T01:15:17.572Z,84.35
2019-03-22T01:17:48.505Z,84.27
2019-03-22T01:20:19.476Z,84.07
2019-03-22T01:22:50.601Z,83.79
2019-03-22T01:25:21.909Z,83.88
2019-03-22T01:27:52.757Z,83.74
2019-03-22T01:30:23.504Z,83.71
2019-03-22T01:32:54.246Z,83.64
2019-03-22T01:35:25.128Z,83.46
2019-03-22T01:37:55.890Z,83.55
2019-03-22T01:40:26.738Z,83.29
2019-03-22T01:42:57.596Z,83.41
2019-03-22T01:45:28.435Z,83.27
2019-03-22T01:47:59.161Z,83.25
2019-03-22T01:50:29.904Z,83.31
2019-03-22T01:53:00.715Z,83.18
2019-03-22T01:55:31.765Z,82.93
2019-03-22T01:58:02.595Z,83.06
2019-03-22T02:00:33.447Z,82.94
2019-03-22T02:03:04.264Z,82.83
2019-03-22T02:05:35.120Z,83.13
2019-03-22T02:08:05.980Z,82.95
2019-03-22T02:10:36.790Z,82.89
2019-03-22T02:13:07.522Z,82.88
2019-03-22T02:15:38.350Z,82.29
2019-03-22T02:18:09.193Z,82.34
2019-03-22T02:20:40.019Z,82.45
2019-03-22T02:23:10.858Z,82.26
2019-03-22T02:25:41.593Z,82.43
2019-03-22T02:28:12.439Z,82.27
2019-03-22T02:30:43.219Z,82.61
2019-03-22T02:33:14.008Z,81.97
2019-03-22T02:35:44.659Z,82.64
2019-03-22T02:38:15.469Z,82.80
2019-03-22T02:40:46.202Z,83.05
2019-03-22T02:43:17.051Z,82.85
2019-03-22T02:45:47.911Z,82.96
2019-03-22T02:48:18.443Z,82.85
2019-03-22T02:50:48.899Z,83.01
2019-03-22T02:53:19.802Z,82.93
2019-03-22T02:55:50.704Z,82.44
2019-03-22T02:58:21.598Z,82.54
2019-03-22T03:00:52.484Z,82.65
2019-03-22T03:03:23.247Z,82.86
2019-03-22T03:05:53.813Z,82.88
2019-03-22T03:08:24.710Z,83.00
2019-03-22T03:10:55.550Z,82.28
2019-03-22T03:13:26.277Z,82.91
2019-03-22T03:15:57.605Z,82.93
2019-03-22T03:18:28.091Z,82.51
2019-03-22T03:21:00.431Z,82.76
2019-03-22T03:23:31.249Z,82.81
2019-03-22T03:26:01.997Z,82.72
2019-03-22T03:28:37.189Z,82.91
2019-03-22T03:31:05.312Z,82.68
2019-03-22T03:33:36.160Z,82.80
2019-03-22T03:36:06.966Z,82.53
2019-03-22T03:38:37.617Z,82.64
2019-03-22T03:41:08.131Z,82.75
2019-03-22T03:43:38.973Z,82.94
2019-03-22T03:46:09.746Z,82.43
2019-03-22T03:48:40.253Z,82.61
2019-03-22T03:51:11.092Z,82.60
2019-03-22T03:53:42.019Z,82.67
2019-03-22T03:56:12.859Z,82.51
2019-03-22T03:58:52.225Z,82.51
2019-03-22T04:01:16.464Z,82.79
2019-03-22T04:03:47.197Z,82.92
2019-03-22T04:06:18.054Z,82.79
2019-03-22T04:08:48.783Z,82.01
2019-03-22T04:11:19.602Z,82.61
2019-03-22T04:13:50.404Z,82.32
2019-03-22T04:16:20.870Z,82.78
2019-03-22T04:18:51.823Z,83.05
2019-03-22T04:21:23.069Z,83.01
2019-03-22T04:23:53.946Z,83.25
2019-03-22T04:26:24.830Z,83.03
2019-03-22T04:29:06.823Z,83.07
2019-03-22T04:31:27.716Z,83.20
2019-03-22T04:33:58.120Z,83.32
2019-03-22T04:36:28.938Z,83.28
2019-03-22T04:38:59.743Z,83.19
2019-03-22T04:41:30.477Z,83.15
2019-03-22T04:44:01.148Z,83.32
2019-03-22T04:46:32.345Z,83.10
2019-03-22T04:49:03.191Z,83.19
2019-03-22T04:51:34.209Z,83.05
2019-03-22T04:54:05.872Z,83.12
2019-03-22T04:56:38.797Z,82.65
2019-03-22T04:59:19.037Z,82.76
2019-03-22T05:01:47.394Z,82.56
2019-03-22T05:04:19.151Z,82.48
2019-03-22T05:06:52.438Z,82.49
2019-03-22T05:09:26.562Z,82.57
2019-03-22T05:11:59.359Z,82.75
2019-03-22T05:14:32.431Z,82.54
2019-03-22T05:17:04.599Z,82.85
2019-03-22T05:19:38.533Z,83.54
2019-03-22T05:22:11.916Z,83.58
2019-03-22T05:24:45.197Z,83.26
2019-03-22T05:27:17.566Z,83.14
2019-03-22T05:29:48.714Z,83.34
2019-03-22T05:32:19.496Z,83.05
2019-03-22T05:34:50.384Z,83.25
2019-03-22T05:37:21.241Z,83.40
2019-03-22T05:39:52.004Z,82.63
2019-03-22T05:42:22.787Z,82.93
2019-03-22T05:44:55.967Z,82.98
2019-03-22T05:47:26.409Z,82.83
2019-03-22T05:49:57.271Z,82.88
2019-03-22T05:52:27.995Z,82.75
2019-03-22T05:55:01.652Z,82.75
2019-03-22T05:57:32.535Z,82.55
2019-03-22T06:00:05.742Z,82.39
2019-03-22T06:02:36.577Z,82.88
2019-03-22T06:05:08.011Z,83.15
2019-03-22T06:07:38.761Z,82.81
2019-03-22T06:10:09.770Z,82.95
2019-03-22T06:12:40.956Z,82.60
2019-03-22T06:15:14.794Z,82.83
2019-03-22T06:17:51.562Z,81.68
2019-03-22T06:20:18.224Z,81.08
2019-03-22T06:22:51.030Z,82.10
2019-03-22T06:25:23.003Z,82.90
2019-03-22T06:27:53.414Z,82.82
2019-03-22T06:30:25.290Z,82.23
2019-03-22T06:32:56.141Z,82.67
2019-03-22T06:35:27.243Z,83.04
2019-03-22T06:37:59.303Z,82.91
2019-03-22T06:40:36.482Z,82.69
2019-03-22T06:43:08.457Z,82.54
2019-03-22T06:45:39.294Z,82.70
2019-03-22T06:48:10.383Z,82.69
2019-03-22T06:50:42.751Z,82.64
2019-03-22T06:53:13.839Z,82.59
2019-03-22T06:55:44.738Z,82.65
2019-03-22T06:58:15.551Z,82.78
2019-03-22T07:00:46.279Z,82.82
2019-03-22T07:03:16.739Z,82.62
2019-03-22T07:05:50.056Z,82.39
2019-03-22T07:08:20.612Z,82.58
2019-03-22T07:10:51.362Z,82.72
2019-03-22T07:13:22.292Z,82.65
2019-03-22T07:15:53.082Z,82.86
2019-03-22T07:18:23.874Z,82.43
2019-03-22T07:20:54.731Z,82.14
2019-03-22T07:23:25.552Z,82.33
2019-03-22T07:25:56.303Z,82.40
2019-03-22T07:28:27.141Z,82.33
2019-03-22T07:30:57.994Z,82.02
2019-03-22T07:33:28.910Z,81.63
2019-03-22T07:35:59.580Z,81.77
2019-03-22T07:38:30.280Z,81.76
2019-03-22T07:41:01.110Z,81.75
2019-03-22T07:43:32.025Z,81.57
2019-03-22T07:46:02.875Z,81.64
2019-03-22T07:48:33.616Z,81.33
2019-03-22T07:51:04.448Z,81.23
2019-03-22T07:53:35.209Z,80.86
2019-03-22T07:56:06.188Z,80.57
2019-03-22T07:58:37.090Z,80.63
2019-03-22T08:01:07.467Z,80.57
2019-03-22T08:03:40.996Z,80.68
2019-03-22T08:06:11.815Z,80.93
2019-03-22T08:08:42.669Z,80.89
2019-03-22T08:11:13.392Z,80.88
2019-03-22T08:13:43.912Z,81.09
2019-03-22T08:16:16.776Z,81.03
2019-03-22T08:18:47.696Z,80.84
2019-03-22T08:21:18.260Z,80.99
2019-03-22T08:23:49.164Z,80.62
2019-03-22T08:26:20.064Z,80.49
2019-03-22T08:28:51.034Z,80.58
2019-03-22T08:31:21.558Z,80.73
2019-03-22T08:33:52.430Z,80.31
2019-03-22T08:36:23.249Z,80.22
2019-03-22T08:38:54.159Z,80.14
2019-03-22T08:41:25.059Z,80.37
2019-03-22T08:43:55.572Z,80.53
2019-03-22T08:46:26.430Z,79.67
2019-03-22T08:48:57.321Z,79.51
2019-03-22T08:51:29.867Z,79.92
2019-03-22T08:54:00.474Z,80.03
2019-03-22T08:56:31.349Z,79.96
2019-03-22T08:59:02.459Z,79.83
2019-03-22T09:01:33.320Z,79.60
2019-03-22T09:04:04.137Z,79.58
2019-03-22T09:06:35.082Z,79.41
2019-03-22T09:09:07.808Z,78.99
2019-03-22T09:11:38.769Z,78.83
2019-03-22T09:14:09.705Z,78.87
2019-03-22T09:16:40.611Z,78.67
2019-03-22T09:19:11.131Z,78.71
2019-03-22T09:21:42.069Z,78.70
2019-03-22T09:24:13.027Z,78.86
2019-03-22T09:26:47.952Z,78.61
2019-03-22T09:29:16.211Z,78.69
2019-03-22T09:31:47.112Z,78.46
2019-03-22T09:34:18.058Z,78.64
2019-03-22T09:36:49.181Z,77.88
2019-03-22T09:39:20.076Z,77.98
2019-03-22T09:41:50.584Z,77.83
2019-03-22T09:44:21.414Z,77.50
2019-03-22T09:46:51.934Z,77.56
2019-03-22T09:49:23.197Z,77.35
2019-03-22T09:51:55.311Z,77.32
2019-03-22T09:54:26.432Z,77.27
2019-03-22T09:56:57.640Z,77.26
2019-03-22T09:59:28.526Z,77.07
2019-03-22T10:01:59.365Z,76.83
2019-03-22T10:04:30.156Z,76.83
2019-03-22T10:07:00.910Z,76.78
2019-03-22T10:09:31.812Z,76.66
2019-03-22T10:12:02.495Z,76.80
2019-03-22T10:14:33.318Z,76.74
2019-03-22T10:17:04.171Z,76.87
2019-03-22T10:19:35.108Z,76.86
2019-03-22T10:22:05.512Z,76.34
2019-03-22T10:24:36.539Z,76.20
2019-03-22T10:27:07.411Z,76.81
2019-03-22T10:29:38.226Z,77.42
2019-03-22T10:32:08.818Z,76.86
2019-03-22T10:34:39.963Z,76.72
2019-03-22T10:37:11.033Z,76.26
2019-03-22T10:39:41.806Z,75.95
2019-03-22T10:42:12.621Z,76.56
2019-03-22T10:44:43.521Z,76.57
2019-03-22T10:47:14.465Z,76.57
2019-03-22T10:49:45.513Z,76.45
2019-03-22T10:52:16.418Z,76.75
2019-03-22T10:54:46.964Z,76.43
2019-03-22T10:57:17.781Z,76.36
2019-03-22T10:59:48.678Z,76.98
2019-03-22T11:02:19.521Z,77.25
2019-03-22T11:04:50.235Z,76.93
2019-03-22T11:07:21.082Z,76.82
2019-03-22T11:09:51.822Z,76.78
2019-03-22T11:12:22.660Z,77.65
2019-03-22T11:14:53.498Z,77.11
2019-03-22T11:17:24.316Z,76.88
2019-03-22T11:19:54.775Z,76.56
2019-03-22T11:22:25.199Z,76.63
2019-03-22T11:24:56.016Z,76.07
2019-03-22T11:27:26.745Z,76.10
2019-03-22T11:30:00.391Z,75.99
2019-03-22T11:32:33.315Z,76.14
2019-03-22T11:35:04.893Z,76.50
2019-03-22T11:37:35.557Z,76.11
2019-03-22T11:40:09.227Z,76.20
2019-03-22T11:42:39.952Z,75.93
2019-03-22T11:45:16.270Z,75.62
2019-03-22T11:47:47.173Z,75.63
2019-03-22T11:50:18.116Z,75.36
2019-03-22T11:52:48.935Z,75.76
2019-03-22T11:55:19.777Z,75.82
2019-03-22T11:57:50.516Z,75.69
2019-03-22T12:00:27.831Z,75.29
2019-03-22T12:02:58.243Z,75.62
2019-03-22T12:05:28.752Z,75.47
2019-03-22T12:07:59.615Z,75.15
2019-03-22T12:10:30.424Z,75.19
2019-03-22T12:13:01.406Z,75.57
2019-03-22T12:15:32.306Z,75.49
2019-03-22T12:18:03.160Z,75.19
2019-03-22T12:20:33.938Z,74.58
2019-03-22T12:23:04.649Z,74.60
2019-03-22T12:25:35.747Z,73.96
2019-03-22T12:28:06.600Z,74.16
2019-03-22T12:30:37.434Z,74.22
2019-03-22T12:33:08.194Z,73.95
2019-03-22T12:35:38.629Z,74.44
2019-03-22T12:38:11.739Z,74.01
2019-03-22T12:40:42.548Z,73.78
2019-03-22T12:43:13.462Z,73.97
2019-03-22T12:45:44.190Z,73.78
2019-03-22T12:48:14.971Z,73.94
2019-03-22T12:50:45.878Z,73.21
2019-03-22T12:53:16.380Z,73.90
2019-03-22T12:55:48.750Z,73.53
2019-03-22T12:58:19.755Z,73.56
2019-03-22T13:00:50.235Z,72.78
2019-03-22T13:03:21.010Z,72.74
2019-03-22T13:05:53.041Z,72.44
2019-03-22T13:08:23.959Z,72.34
2019-03-22T13:10:54.703Z,72.24
2019-03-22T13:13:25.413Z,72.35
2019-03-22T13:15:55.916Z,72.39
2019-03-22T13:18:26.710Z,72.34
2019-03-22T13:20:57.543Z,72.11
2019-03-22T13:23:28.313Z,72.23
2019-03-22T13:25:59.099Z,72.10
2019-03-22T13:28:31.878Z,71.65
2019-03-22T13:31:02.729Z,71.33
2019-03-22T13:33:33.574Z,71.27
2019-03-22T13:36:04.711Z,71.07
2019-03-22T13:38:37.048Z,70.37
2019-03-22T13:41:07.709Z,69.97
2019-03-22T13:43:41.701Z,70.10
2019-03-22T13:46:12.604Z,70.52
2019-03-22T13:48:43.299Z,70.06
2019-03-22T13:51:14.655Z,70.28
2019-03-22T13:53:45.545Z,70.62
2019-03-22T13:56:16.325Z,71.38
2019-03-22T13:58:47.159Z,71.04
2019-03-22T14:01:18.212Z,70.74
2019-03-22T14:03:48.787Z,71.16
2019-03-22T14:06:20.330Z,71.32
2019-03-22T14:08:51.139Z,71.88
2019-03-22T14:11:21.989Z,72.53
2019-03-22T14:13:52.791Z,73.07
2019-03-22T14:16:23.620Z,72.59
2019-03-22T14:18:54.377Z,72.23
2019-03-22T14:21:25.214Z,71.97
2019-03-22T14:23:56.073Z,72.85
2019-03-22T14:26:26.874Z,72.51
2019-03-22T14:28:57.674Z,72.71
2019-03-22T14:31:28.330Z,72.44
2019-03-22T14:33:59.072Z,72.79
2019-03-22T14:36:31.590Z,71.99
2019-03-22T14:39:02.501Z,72.52
2019-03-22T14:41:33.753Z,72.29
2019-03-22T14:44:06.026Z,72.60
2019-03-22T14:46:36.950Z,72.12
2019-03-22T14:49:07.951Z,71.76
2019-03-22T14:51:38.433Z,72.00
2019-03-22T14:54:09.576Z,72.12
2019-03-22T14:56:40.447Z,71.50
2019-03-22T14:59:11.378Z,72.09
2019-03-22T15:01:42.316Z,72.04
2019-03-22T15:04:13.144Z,71.78
2019-03-22T15:06:46.599Z,71.69
2019-03-22T15:09:21.843Z,72.04
2019-03-22T15:11:52.640Z,71.86
2019-03-22T15:14:31.215Z,71.80
2019-03-22T15:17:06.583Z,72.16
2019-03-22T15:19:50.907Z,72.71
2019-03-22T15:22:23.399Z,73.26
2019-03-22T15:25:02.253Z,73.36
2019-03-22T15:27:34.689Z,73.04
2019-03-22T15:30:21.930Z,72.45
2019-03-22T15:32:54.404Z,73.19
2019-03-22T15:35:35.762Z,73.15
2019-03-22T15:38:08.308Z,73.01
2019-03-22T15:40:40.396Z,72.57
2019-03-22T15:43:13.857Z,72.75
2019-03-22T15:45:44.679Z,73.51
2019-03-22T15:48:15.180Z,74.44
2019-03-22T15:50:46.075Z,74.01
2019-03-22T15:53:16.836Z,74.54
2019-03-22T15:55:47.701Z,74.10
2019-03-22T15:58:18.731Z,73.96
2019-03-22T16:00:51.206Z,73.85
2019-03-22T16:03:22.000Z,73.75
2019-03-22T16:05:52.872Z,73.64
2019-03-22T16:08:25.365Z,73.84
2019-03-22T16:10:56.289Z,73.57
2019-03-22T16:13:26.765Z,74.42
2019-03-22T16:15:57.276Z,74.58
2019-03-22T16:18:27.957Z,75.03
2019-03-22T16:21:00.182Z,74.80
2019-03-22T16:23:31.210Z,74.90
2019-03-22T16:26:02.036Z,75.70
2019-03-22T16:28:37.110Z,75.33
2019-03-22T16:31:08.108Z,75.47
2019-03-22T16:33:41.990Z,76.12
2019-03-22T16:36:12.856Z,76.09
2019-03-22T16:38:44.110Z,76.36
2019-03-22T16:41:14.783Z,76.84
2019-03-22T16:43:46.104Z,76.80
2019-03-22T16:46:18.550Z,76.56
2019-03-22T16:48:49.482Z,76.66
2019-03-22T16:51:20.237Z,76.83
2019-03-22T16:53:51.173Z,76.94
2019-03-22T16:56:22.206Z,77.30
2019-03-22T16:58:52.753Z,77.11
2019-03-22T17:01:23.682Z,77.58
2019-03-22T17:04:03.927Z,77.86
2019-03-22T17:06:27.197Z,78.62
2019-03-22T17:09:00.275Z,78.65
2019-03-22T17:11:30.639Z,78.61
2019-03-22T17:14:01.246Z,78.60
2019-03-22T17:16:32.223Z,78.72
2019-03-22T17:19:02.784Z,78.83
2019-03-22T17:21:33.634Z,78.55
2019-03-22T17:24:04.099Z,78.72
2019-03-22T17:26:35.010Z,79.03
2019-03-22T17:29:05.945Z,79.30
2019-03-22T17:31:39.680Z,79.07
2019-03-22T17:34:14.271Z,79.61
2019-03-22T17:36:46.956Z,79.60
2019-03-22T17:39:17.995Z,79.79
2019-03-22T17:41:48.743Z,79.87
2019-03-22T17:44:22.729Z,79.89
2019-03-22T17:46:53.496Z,80.03
2019-03-22T17:49:24.351Z,80.01
2019-03-22T17:51:55.143Z,79.78
2019-03-22T17:54:25.532Z,80.28
2019-03-22T17:56:58.340Z,80.30
2019-03-22T17:59:29.100Z,80.40
2019-03-22T18:02:00.134Z,80.59
2019-03-22T18:04:30.644Z,80.17
2019-03-22T18:07:01.555Z,80.43
2019-03-22T18:09:35.114Z,80.30
2019-03-22T18:12:06.140Z,80.67
2019-03-22T18:14:37.074Z,80.94
2019-03-22T18:17:08.099Z,80.65
2019-03-22T18:19:38.990Z,80.82
2019-03-22T18:22:10.008Z,80.75
2019-03-22T18:24:48.449Z,80.73
2019-03-22T18:27:20.791Z,81.00
2019-03-22T18:29:55.974Z,80.93
2019-03-22T18:32:28.164Z,81.04
2019-03-22T18:35:02.424Z,80.55
2019-03-22T18:37:43.634Z,80.77
2019-03-22T18:40:15.401Z,80.95
2019-03-22T18:42:46.643Z,80.91
2019-03-22T18:45:18.895Z,81.04
2019-03-22T18:47:49.861Z,81.44
2019-03-22T18:50:20.737Z,81.27
2019-03-22T18:52:59.355Z,81.75
2019-03-22T18:55:31.678Z,81.66
2019-03-22T18:58:02.480Z,81.48
2019-03-22T19:00:34.086Z,81.78
2019-03-22T19:03:11.774Z,81.85
2019-03-22T19:05:43.956Z,81.67
2019-03-22T19:08:15.578Z,82.17
2019-03-22T19:10:46.483Z,82.05
2019-03-22T19:13:17.364Z,82.15
2019-03-22T19:15:48.448Z,82.34
2019-03-22T19:18:19.404Z,82.63
2019-03-22T19:20:50.645Z,82.49
2019-03-22T19:23:26.930Z,82.46
2019-03-22T19:25:58.323Z,82.59
2019-03-22T19:28:32.105Z,82.87
2019-03-22T19:31:03.118Z,82.70
2019-03-22T19:33:35.276Z,82.81
2019-03-22T19:36:10.835Z,82.92
2019-03-22T19:38:41.875Z,83.03
2019-03-22T19:41:17.942Z,83.35
2019-03-22T19:43:48.727Z,83.43
2019-03-22T19:46:19.534Z,83.21
2019-03-22T19:48:52.766Z,83.34
2019-03-22T19:51:25.170Z,83.69
2019-03-22T19:53:58.901Z,83.54
2019-03-22T19:56:29.829Z,83.68
2019-03-22T19:59:04.568Z,83.52
2019-03-22T20:01:38.472Z,83.87
2019-03-22T20:04:09.945Z,84.00
2019-03-22T20:06:40.992Z,83.87
2019-03-22T20:09:12.332Z,84.13
2019-03-22T20:11:43.247Z,83.81
2019-03-22T20:14:14.183Z,83.73
2019-03-22T20:16:45.040Z,83.98
2019-03-22T20:19:18.868Z,83.81
2019-03-22T20:21:51.175Z,83.81
2019-03-22T20:24:22.029Z,83.89
2019-03-22T20:26:59.541Z,84.05
2019-03-22T20:29:29.513Z,83.77
2019-03-22T20:32:00.488Z,83.84
2019-03-22T20:34:34.079Z,83.87
2019-03-22T20:37:16.485Z,83.80
2019-03-22T20:39:40.161Z,84.20
2019-03-22T20:42:10.877Z,83.66
2019-03-22T20:44:41.756Z,83.98
2019-03-22T20:47:13.946Z,84.38
2019-03-22T20:49:44.972Z,84.25
2019-03-22T20:52:15.800Z,84.33
2019-03-22T20:54:49.199Z,84.40
2019-03-22T20:57:20.007Z,84.42
2019-03-22T20:59:50.841Z,84.36
2019-03-22T21:02:21.966Z,84.55
2019-03-22T21:04:52.529Z,84.42
2019-03-22T21:07:23.880Z,84.54
2019-03-22T21:09:56.358Z,84.56
2019-03-22T21:12:27.277Z,84.40
2019-03-22T21:15:00.367Z,84.44
2019-03-22T21:17:49.735Z,84.32
2019-03-22T21:20:20.457Z,84.66
2019-03-22T21:22:50.897Z,84.98
2019-03-22T21:25:21.750Z,84.63
2019-03-22T21:27:52.747Z,84.77
2019-03-22T21:30:23.627Z,84.76
2019-03-22T21:32:54.492Z,85.08
2019-03-22T21:35:36.681Z,85.15
2019-03-22T21:38:10.191Z,85.27
2019-03-22T21:40:31.990Z,84.98
2019-03-22T21:43:04.563Z,85.47
2019-03-22T21:45:35.515Z,85.41
2019-03-22T21:48:06.038Z,85.36
2019-03-22T21:50:36.876Z,85.39
2019-03-22T21:53:07.739Z,85.48
2019-03-22T21:55:38.290Z,85.79
2019-03-22T21:58:09.156Z,85.61
2019-03-22T22:00:40.119Z,85.47
2019-03-22T22:03:11.004Z,85.29
2019-03-22T22:05:47.818Z,85.12
2019-03-22T22:08:14.554Z,85.72
2019-03-22T22:10:45.318Z,85.36
2019-03-22T22:13:16.227Z,85.60
2019-03-22T22:15:47.084Z,85.76
2019-03-22T22:18:17.979Z,85.20
2019-03-22T22:20:48.867Z,85.75
2019-03-22T22:23:19.820Z,85.64
2019-03-22T22:25:50.635Z,85.73
2019-03-22T22:28:21.477Z,85.65
2019-03-22T22:30:52.452Z,85.90
2019-03-22T22:33:23.280Z,85.67
2019-03-22T22:35:58.699Z,85.94
2019-03-22T22:38:27.045Z,85.76
2019-03-22T22:40:58.020Z,85.96
2019-03-22T22:43:29.064Z,85.96
2019-03-22T22:46:00.056Z,86.19
2019-03-22T22:48:30.628Z,86.17
2019-03-22T22:51:01.524Z,86.23
2019-03-22T22:53:32.398Z,86.11
2019-03-22T22:56:03.406Z,86.18
2019-03-22T22:58:34.202Z,86.05
2019-03-22T23:01:05.103Z,86.22
2019-03-22T23:03:36.064Z,86.40
2019-03-22T23:06:09.656Z,86.38
2019-03-22T23:08:39.471Z,86.34
2019-03-22T23:11:10.289Z,86.48
2019-03-22T23:13:41.043Z,86.65
2019-03-22T23:16:11.861Z,86.21
2019-03-22T23:18:42.710Z,86.19
2019-03-22T23:21:13.544Z,86.31
2019-03-22T23:23:44.283Z,86.43
2019-03-22T23:26:14.804Z,86.54
2019-03-22T23:28:45.622Z,86.60
2019-03-22T23:31:17.845Z,86.58
2019-03-22T23:33:48.668Z,86.66
2019-03-22T23:36:20.676Z,86.66
2019-03-22T23:38:51.756Z,86.70
2019-03-22T23:41:22.471Z,86.85
2019-03-22T23:43:53.226Z,86.94
2019-03-22T23:46:24.516Z,86.72
2019-03-22T23:48:55.319Z,86.87
2019-03-22T23:51:26.337Z,86.89
2019-03-22T23:54:00.303Z,86.90
2019-03-22T23:56:30.757Z,86.85
2019-03-22T23:59:01.520Z,86.50
